^^
Your Local Weather - Clay, NY Station Historical Data
Daily Summary for September 13, 2017 Units:  English    Metric   Both
« Previous Day
Next Day »
Daily Weekly Monthly Yearly Custom
  High: Low: Average:
Temperature: 81.3 °F 49.1 °F 63.8 °F
Dew Point: 67.0 °F 47.4 °F 57.5 °F
Humidity: 95% 53% 82%
Wind Speed: 3.0mph 0.0mph 0.5mph
Wind Gust: 7.0mph - -
Wind- - ESE
Pressure: 29.88 in 29.73 in -
Precipitation: 0.00 in    
Historical Graphs
 
 
Tabular Data for September 13, 2017
Time Temperature Dew Point Pressure Wind Wind Speed Wind Gust Humidity Rainfall Rate (Hourly) solar
00:02 52.7 °F 50.4 °F 29.87 in Calm     92% 0.00 in 0 W/m2
00:08 52.8 °F 50.5 °F 29.87 in Calm     92% 0.00 in 0 W/m2
00:16 52.8 °F 50.5 °F 29.87 in Calm     92% 0.00 in 0 W/m2
00:22 52.7 °F 50.7 °F 29.87 in Calm     93% 0.00 in 0 W/m2
00:28 52.6 °F 50.6 °F 29.87 in Calm     93% 0.00 in 0 W/m2
00:34 52.6 °F 50.6 °F 29.87 in Calm     93% 0.00 in 0 W/m2
00:40 52.6 °F 50.6 °F 29.87 in Calm     93% 0.00 in 0 W/m2
00:46 52.5 °F 50.5 °F 29.87 in Calm     93% 0.00 in 0 W/m2
00:52 52.5 °F 50.5 °F 29.86 in Calm     93% 0.00 in 0 W/m2
00:58 52.6 °F 50.6 °F 29.86 in Calm     93% 0.00 in 0 W/m2
01:04 52.5 °F 50.5 °F 29.86 in Calm     93% 0.00 in 0 W/m2
01:10 52.5 °F 50.5 °F 29.87 in Calm     93% 0.00 in 0 W/m2
01:16 52.6 °F 50.6 °F 29.87 in Calm     93% 0.00 in 0 W/m2
01:22 52.4 °F 50.4 °F 29.87 in Calm     93% 0.00 in 0 W/m2
01:28 52.2 °F 50.2 °F 29.87 in Calm     93% 0.00 in 0 W/m2
01:34 52.0 °F 50.0 °F 29.87 in Calm     93% 0.00 in 0 W/m2
01:40 52.0 °F 50.0 °F 29.87 in Calm     93% 0.00 in 0 W/m2
01:46 52.0 °F 50.0 °F 29.87 in Calm     93% 0.00 in 0 W/m2
01:52 51.9 °F 49.9 °F 29.87 in Calm     93% 0.00 in 0 W/m2
01:58 51.6 °F 49.6 °F 29.87 in Calm     93% 0.00 in 0 W/m2
02:04 51.4 °F 49.4 °F 29.87 in Calm     93% 0.00 in 0 W/m2
02:10 51.4 °F 49.4 °F 29.87 in Calm     93% 0.00 in 0 W/m2
02:16 51.2 °F 49.2 °F 29.87 in Calm     93% 0.00 in 0 W/m2
02:22 51.4 °F 49.7 °F 29.87 in Calm     94% 0.00 in 0 W/m2
02:28 51.3 °F 49.3 °F 29.87 in Calm     93% 0.00 in 0 W/m2
02:34 51.1 °F 49.1 °F 29.87 in Calm     93% 0.00 in 0 W/m2
02:40 50.8 °F 48.8 °F 29.87 in Calm     93% 0.00 in 0 W/m2
02:46 50.6 °F 48.7 °F 29.87 in Calm     93% 0.00 in 0 W/m2
02:52 50.5 °F 48.6 °F 29.86 in Calm     93% 0.00 in 0 W/m2
02:58 50.3 °F 48.6 °F 29.86 in Calm     94% 0.00 in 0 W/m2
03:04 50.2 °F 48.5 °F 29.86 in Calm     94% 0.00 in 0 W/m2
03:10 50.3 °F 48.6 °F 29.86 in Calm     94% 0.00 in 0 W/m2
03:16 50.1 °F 48.4 °F 29.86 in Calm     94% 0.00 in 0 W/m2
03:22 50.0 °F 48.3 °F 29.86 in Calm     94% 0.00 in 0 W/m2
03:28 50.0 °F 48.3 °F 29.86 in Calm     94% 0.00 in 0 W/m2
03:34 50.1 °F 48.4 °F 29.86 in Calm     94% 0.00 in 0 W/m2
03:40 49.9 °F 48.2 °F 29.86 in Calm     94% 0.00 in 0 W/m2
03:46 50.0 °F 48.3 °F 29.86 in Calm     94% 0.00 in 0 W/m2
03:52 49.9 °F 48.2 °F 29.86 in Calm     94% 0.00 in 0 W/m2
03:58 49.8 °F 48.1 °F 29.86 in Calm     94% 0.00 in 0 W/m2
04:10 49.8 °F 48.1 °F 29.86 in Calm     94% 0.00 in 0 W/m2
04:16 49.8 °F 48.1 °F 29.86 in Calm     94% 0.00 in 0 W/m2
04:22 49.7 °F 48.0 °F 29.86 in Calm     94% 0.00 in 0 W/m2
04:28 49.5 °F 47.8 °F 29.86 in Calm     94% 0.00 in 0 W/m2
04:34 49.5 °F 47.8 °F 29.86 in Calm     94% 0.00 in 0 W/m2
04:40 49.6 °F 47.9 °F 29.86 in Calm     94% 0.00 in 0 W/m2
04:46 49.8 °F 48.1 °F 29.86 in Calm     94% 0.00 in 0 W/m2
04:52 49.8 °F 48.1 °F 29.86 in Calm     94% 0.00 in 0 W/m2
04:58 49.8 °F 48.1 °F 29.86 in Calm     94% 0.00 in 0 W/m2
05:04 49.6 °F 47.9 °F 29.86 in Calm     94% 0.00 in 0 W/m2
05:10 49.7 °F 48.0 °F 29.86 in Calm   1.0 mph 94% 0.00 in 0 W/m2
05:16 49.8 °F 48.1 °F 29.86 in Calm   1.0 mph 94% 0.00 in 0 W/m2
05:22 49.6 °F 47.9 °F 29.86 in Calm     94% 0.00 in 0 W/m2
05:28 49.6 °F 47.9 °F 29.86 in Calm     94% 0.00 in 0 W/m2
05:34 49.3 °F 47.6 °F 29.86 in Calm     94% 0.00 in 0 W/m2
05:40 49.5 °F 47.8 °F 29.86 in Calm     94% 0.00 in 0 W/m2
05:46 49.6 °F 47.9 °F 29.87 in Calm     94% 0.00 in 0 W/m2
05:52 49.7 °F 48.0 °F 29.87 in Calm     94% 0.00 in 0 W/m2
05:58 49.5 °F 47.8 °F 29.87 in Calm     94% 0.00 in 0 W/m2
06:04 49.6 °F 47.9 °F 29.87 in Calm     94% 0.00 in 0 W/m2
06:10 49.4 °F 47.7 °F 29.87 in Calm     94% 0.00 in 0 W/m2
06:16 49.4 °F 47.7 °F 29.87 in Calm     94% 0.00 in 0 W/m2
06:22 49.5 °F 47.8 °F 29.87 in Calm     94% 0.00 in 0 W/m2
06:28 49.6 °F 47.9 °F 29.87 in Calm     94% 0.00 in 0 W/m2
06:34 49.3 °F 47.6 °F 29.87 in Calm     94% 0.00 in 0 W/m2
06:40 49.2 °F 47.5 °F 29.87 in Calm     94% 0.00 in 0 W/m2
06:46 49.1 °F 47.4 °F 29.87 in Calm     94% 0.00 in 5 W/m2
06:52 49.1 °F 47.4 °F 29.87 in Calm     94% 0.00 in 9 W/m2
06:58 49.4 °F 47.7 °F 29.87 in Calm     94% 0.00 in 12 W/m2
07:04 49.4 °F 48.0 °F 29.87 in Calm     95% 0.00 in 16 W/m2
07:10 49.3 °F 47.9 °F 29.87 in Calm     95% 0.00 in 19 W/m2
07:16 49.7 °F 48.0 °F 29.87 in Calm     94% 0.00 in 23 W/m2
07:22 50.1 °F 48.7 °F 29.87 in Calm     95% 0.00 in 26 W/m2
07:28 50.4 °F 49.0 °F 29.87 in Calm     95% 0.00 in 32 W/m2
07:34 50.6 °F 49.2 °F 29.87 in Calm     95% 0.00 in 35 W/m2
07:40 50.6 °F 49.2 °F 29.88 in Calm     95% 0.00 in 39 W/m2
07:46 50.8 °F 49.4 °F 29.88 in Calm     95% 0.00 in 42 W/m2
07:52 51.1 °F 49.7 °F 29.87 in Calm     95% 0.00 in 49 W/m2
07:58 51.6 °F 50.2 °F 29.87 in Calm   1.0 mph 95% 0.00 in 93 W/m2
08:04 52.1 °F 50.7 °F 29.87 in Calm   1.0 mph 95% 0.00 in 53 W/m2
08:10 52.5 °F 51.1 °F 29.87 in Calm     95% 0.00 in 60 W/m2
08:16 53.1 °F 51.7 °F 29.87 in Calm   1.0 mph 95% 0.00 in 74 W/m2
08:22 53.9 °F 52.5 °F 29.87 in Calm     95% 0.00 in 79 W/m2
08:28 54.2 °F 52.8 °F 29.87 in Calm     95% 0.00 in 107 W/m2
08:34 54.7 °F 53.3 °F 29.87 in Calm   1.0 mph 95% 0.00 in 72 W/m2
08:40 55.3 °F 53.9 °F 29.87 in SSE 1.0 mph 1.0 mph 95% 0.00 in 93 W/m2
08:46 55.7 °F 54.3 °F 29.87 in SSE 1.0 mph 1.0 mph 95% 0.00 in 102 W/m2
08:52 56.2 °F 54.8 °F 29.87 in ESE 2.0 mph 2.0 mph 95% 0.00 in 74 W/m2
08:58 56.5 °F 55.1 °F 29.87 in East 1.0 mph 2.0 mph 95% 0.00 in 98 W/m2
09:04 56.8 °F 55.4 °F 29.87 in East 1.0 mph 1.0 mph 95% 0.00 in 83 W/m2
09:10 57.3 °F 55.9 °F 29.87 in Calm     95% 0.00 in 90 W/m2
09:16 57.4 °F 56.0 °F 29.87 in Calm   1.0 mph 95% 0.00 in 90 W/m2
09:22 57.8 °F 56.1 °F 29.87 in East 1.0 mph 1.0 mph 94% 0.00 in 90 W/m2
09:28 58.3 °F 56.6 °F 29.86 in Calm   1.0 mph 94% 0.00 in 97 W/m2
09:34 59.0 °F 57.0 °F 29.86 in SSE 1.0 mph 2.0 mph 93% 0.00 in 146 W/m2
09:40 59.6 °F 57.3 °F 29.87 in SSE 2.0 mph 2.0 mph 92% 0.00 in 172 W/m2
09:46 60.2 °F 56.9 °F 29.87 in SSE 1.0 mph 2.0 mph 89% 0.00 in 445 W/m2
09:52 61.6 °F 57.0 °F 29.87 in Calm   1.0 mph 85% 0.00 in 480 W/m2
09:58 62.6 °F 57.0 °F 29.86 in Calm   1.0 mph 82% 0.00 in 413 W/m2
10:04 63.3 °F 57.4 °F 29.86 in Calm   1.0 mph 81% 0.00 in 494 W/m2
10:10 63.6 °F 56.3 °F 29.86 in ENE 1.0 mph 1.0 mph 77% 0.00 in 559 W/m2
10:16 64.4 °F 57.0 °F 29.86 in SE 2.0 mph 3.0 mph 77% 0.00 in 475 W/m2
10:22 65.6 °F 58.2 °F 29.86 in SSE 1.0 mph 1.0 mph 77% 0.00 in 443 W/m2
10:28 65.2 °F 57.1 °F 29.85 in SSE 1.0 mph 1.0 mph 75% 0.00 in 346 W/m2
10:34 65.3 °F 56.8 °F 29.85 in East 1.0 mph 1.0 mph 74% 0.00 in 237 W/m2
10:40 65.5 °F 57.7 °F 29.85 in East 1.0 mph 1.0 mph 76% 0.00 in 258 W/m2
10:46 65.8 °F 57.7 °F 29.85 in ENE 1.0 mph 3.0 mph 75% 0.00 in 320 W/m2
10:52 66.4 °F 57.5 °F 29.84 in NE 2.0 mph 4.0 mph 73% 0.00 in 381 W/m2
10:58 67.2 °F 59.0 °F 29.84 in ENE 2.0 mph 4.0 mph 75% 0.00 in 504 W/m2
11:04 67.9 °F 58.9 °F 29.84 in ENE 1.0 mph 1.0 mph 73% 0.00 in 311 W/m2
11:10 67.7 °F 58.3 °F 29.84 in NE 1.0 mph 2.0 mph 72% 0.00 in 487 W/m2
11:16 69.0 °F 59.6 °F 29.84 in South 1.0 mph 3.0 mph 72% 0.00 in 682 W/m2
11:22 69.9 °F 59.7 °F 29.83 in SSE 1.0 mph 2.0 mph 70% 0.00 in 323 W/m2
11:28 69.1 °F 59.3 °F 29.83 in NE 2.0 mph 3.0 mph 71% 0.00 in 357 W/m2
11:34 69.0 °F 59.2 °F 29.83 in ENE 1.0 mph 3.0 mph 71% 0.00 in 381 W/m2
11:40 68.9 °F 58.7 °F 29.83 in SE 1.0 mph 1.0 mph 70% 0.00 in 413 W/m2
11:46 69.4 °F 60.8 °F 29.83 in ESE 1.0 mph 1.0 mph 74% 0.00 in 459 W/m2
11:52 70.0 °F 59.8 °F 29.82 in ESE 1.0 mph 1.0 mph 70% 0.00 in 478 W/m2
11:58 71.8 °F 61.1 °F 29.82 in NNE 1.0 mph 3.0 mph 69% 0.00 in 853 W/m2
12:04 71.7 °F 61.8 °F 29.82 in North 1.0 mph 4.0 mph 71% 0.00 in 842 W/m2
12:10 72.3 °F 61.6 °F 29.81 in North 2.0 mph 6.0 mph 69% 0.00 in 724 W/m2
12:16 72.6 °F 61.8 °F 29.81 in East 2.0 mph 6.0 mph 69% 0.00 in 810 W/m2
12:22 73.6 °F 61.5 °F 29.81 in ENE 1.0 mph 2.0 mph 66% 0.00 in 788 W/m2
12:28 73.5 °F 62.7 °F 29.81 in ESE 1.0 mph 2.0 mph 69% 0.00 in 791 W/m2
12:34 74.0 °F 60.6 °F 29.81 in ENE 1.0 mph 2.0 mph 63% 0.00 in 791 W/m2
12:40 74.6 °F 61.6 °F 29.81 in NE 1.0 mph 2.0 mph 64% 0.00 in 803 W/m2
12:46 74.9 °F 61.5 °F 29.80 in North 1.0 mph 3.0 mph 63% 0.00 in 733 W/m2
12:52 74.1 °F 60.7 °F 29.80 in East 1.0 mph 2.0 mph 63% 0.00 in 833 W/m2
12:58 74.9 °F 62.3 °F 29.80 in ENE 1.0 mph 2.0 mph 65% 0.00 in 795 W/m2
13:04 74.9 °F 62.8 °F 29.79 in North 2.0 mph 3.0 mph 66% 0.00 in 814 W/m2
13:10 75.0 °F 62.4 °F 29.79 in NNE 2.0 mph 4.0 mph 65% 0.00 in 788 W/m2
13:18 74.7 °F 61.7 °F 29.79 in NE 2.0 mph 4.0 mph 64% 0.00 in 872 W/m2
13:24 75.5 °F 62.9 °F 29.79 in North 2.0 mph 2.0 mph 65% 0.00 in 719 W/m2
13:30 74.6 °F 62.1 °F 29.79 in NNE 2.0 mph 3.0 mph 65% 0.00 in 218 W/m2
13:36 73.8 °F 61.7 °F 29.79 in North 2.0 mph 3.0 mph 66% 0.00 in 241 W/m2
13:42 73.5 °F 61.9 °F 29.78 in NNE 2.0 mph 2.0 mph 67% 0.00 in 295 W/m2
13:54 74.2 °F 62.5 °F 29.78 in East 2.0 mph 5.0 mph 67% 0.00 in 489 W/m2
14:00 74.6 °F 62.1 °F 29.78 in ENE 3.0 mph 3.0 mph 65% 0.00 in 603 W/m2
14:06 75.4 °F 62.4 °F 29.78 in NNE 3.0 mph 3.0 mph 64% 0.00 in 844 W/m2
14:12 75.8 °F 61.8 °F 29.78 in ENE 3.0 mph 3.0 mph 62% 0.00 in 768 W/m2
14:18 76.3 °F 61.4 °F 29.78 in NE 2.0 mph 3.0 mph 60% 0.00 in 737 W/m2
14:24 76.3 °F 61.9 °F 29.77 in NE 2.0 mph 2.0 mph 61% 0.00 in 724 W/m2
14:30 75.5 °F 61.1 °F 29.77 in ENE 2.0 mph 2.0 mph 61% 0.00 in 715 W/m2
14:36 76.2 °F 61.3 °F 29.76 in ENE 2.0 mph 5.0 mph 60% 0.00 in 710 W/m2
14:42 76.8 °F 60.9 °F 29.76 in East 2.0 mph 2.0 mph 58% 0.00 in 700 W/m2
14:48 77.9 °F 62.4 °F 29.76 in East 1.0 mph 2.0 mph 59% 0.00 in 680 W/m2
14:54 78.1 °F 62.6 °F 29.76 in NNE 1.0 mph 3.0 mph 59% 0.00 in 682 W/m2
15:00 78.1 °F 63.1 °F 29.76 in NE 2.0 mph 2.0 mph 60% 0.00 in 696 W/m2
15:06 78.3 °F 61.3 °F 29.75 in NE 1.0 mph 2.0 mph 56% 0.00 in 652 W/m2
15:12 79.0 °F 62.0 °F 29.75 in NE 1.0 mph 1.0 mph 56% 0.00 in 643 W/m2
15:18 79.6 °F 62.0 °F 29.75 in Calm   1.0 mph 55% 0.00 in 629 W/m2
15:24 79.0 °F 62.5 °F 29.75 in Calm   1.0 mph 57% 0.00 in 621 W/m2
15:30 80.1 °F 64.5 °F 29.75 in Calm     59% 0.00 in 608 W/m2
15:36 80.4 °F 61.7 °F 29.75 in WSW 1.0 mph 1.0 mph 53% 0.00 in 596 W/m2
15:42 80.3 °F 62.1 °F 29.75 in WSW 1.0 mph 1.0 mph 54% 0.00 in 575 W/m2
15:48 80.2 °F 64.1 °F 29.75 in SW 1.0 mph 3.0 mph 58% 0.00 in 555 W/m2
15:54 80.4 °F 63.8 °F 29.75 in SW 1.0 mph 1.0 mph 57% 0.00 in 543 W/m2
16:00 80.0 °F 63.4 °F 29.75 in SSW 2.0 mph 7.0 mph 57% 0.00 in 531 W/m2
16:06 80.1 °F 63.5 °F 29.74 in South 2.0 mph 7.0 mph 57% 0.00 in 527 W/m2
16:12 80.5 °F 62.8 °F 29.74 in SW 1.0 mph 4.0 mph 55% 0.00 in 422 W/m2
16:18 80.7 °F 62.5 °F 29.74 in SW 1.0 mph 4.0 mph 54% 0.00 in 494 W/m2
16:24 81.2 °F 63.5 °F 29.73 in Calm   1.0 mph 55% 0.00 in 475 W/m2
16:30 81.0 °F 62.8 °F 29.73 in SSE 1.0 mph 1.0 mph 54% 0.00 in 454 W/m2
16:36 80.8 °F 62.6 °F 29.73 in SSW 1.0 mph 1.0 mph 54% 0.00 in 439 W/m2
16:42 81.3 °F 64.6 °F 29.73 in SSW 1.0 mph 1.0 mph 57% 0.00 in 425 W/m2
16:48 81.1 °F 63.4 °F 29.73 in SW 1.0 mph 2.0 mph 55% 0.00 in 418 W/m2
16:54 80.7 °F 63.5 °F 29.73 in SW 1.0 mph 1.0 mph 56% 0.00 in 396 W/m2
17:00 80.5 °F 64.4 °F 29.73 in Calm   1.0 mph 58% 0.00 in 376 W/m2
17:06 80.3 °F 63.7 °F 29.73 in Calm   1.0 mph 57% 0.00 in 364 W/m2
17:12 80.5 °F 64.9 °F 29.73 in Calm     59% 0.00 in 346 W/m2
17:18 79.5 °F 62.9 °F 29.73 in ENE 1.0 mph 3.0 mph 57% 0.00 in 327 W/m2
17:24 79.2 °F 63.1 °F 29.73 in NNE 1.0 mph 3.0 mph 58% 0.00 in 262 W/m2
17:30 78.3 °F 62.3 °F 29.73 in NNE 2.0 mph 2.0 mph 58% 0.00 in 308 W/m2
17:36 77.8 °F 63.7 °F 29.73 in NE 1.0 mph 2.0 mph 62% 0.00 in 153 W/m2
17:42 77.3 °F 63.3 °F 29.73 in East 1.0 mph 1.0 mph 62% 0.00 in 120 W/m2
17:48 77.1 °F 64.4 °F 29.73 in Calm   1.0 mph 65% 0.00 in 109 W/m2
17:54 76.8 °F 64.1 °F 29.73 in Calm     65% 0.00 in 93 W/m2
18:00 76.7 °F 64.0 °F 29.73 in Calm     65% 0.00 in 98 W/m2
18:06 76.5 °F 65.1 °F 29.73 in Calm   1.0 mph 68% 0.00 in 90 W/m2
18:12 76.3 °F 64.1 °F 29.74 in Calm     66% 0.00 in 70 W/m2
18:18 76.0 °F 65.9 °F 29.74 in Calm     71% 0.00 in 58 W/m2
18:24 75.5 °F 67.0 °F 29.74 in Calm     75% 0.00 in 40 W/m2
18:30 74.8 °F 66.0 °F 29.74 in Calm     74% 0.00 in 23 W/m2
18:36 74.5 °F 66.1 °F 29.74 in Calm     75% 0.00 in 18 W/m2
18:42 74.0 °F 66.7 °F 29.75 in Calm     78% 0.00 in 18 W/m2
18:54 73.1 °F 66.2 °F 29.74 in Calm     79% 0.00 in 23 W/m2
19:00 72.8 °F 66.3 °F 29.75 in Calm     80% 0.00 in 12 W/m2
19:06 72.6 °F 66.1 °F 29.75 in Calm     80% 0.00 in 9 W/m2
19:12 72.2 °F 66.0 °F 29.75 in Calm     81% 0.00 in 0 W/m2
19:18 71.7 °F 65.6 °F 29.76 in Calm     81% 0.00 in 0 W/m2
19:24 71.2 °F 65.1 °F 29.75 in Calm   1.0 mph 81% 0.00 in 0 W/m2
19:30 70.9 °F 65.1 °F 29.75 in Calm     82% 0.00 in 0 W/m2
19:36 70.8 °F 65.4 °F 29.75 in Calm   1.0 mph 83% 0.00 in 0 W/m2
19:42 70.7 °F 65.3 °F 29.75 in Calm     83% 0.00 in 0 W/m2
19:48 70.3 °F 65.2 °F 29.75 in Calm     84% 0.00 in 0 W/m2
19:54 69.8 °F 64.7 °F 29.75 in Calm     84% 0.00 in 0 W/m2
20:00 69.6 °F 64.5 °F 29.75 in Calm     84% 0.00 in 0 W/m2
20:06 69.3 °F 64.3 °F 29.75 in Calm     84% 0.00 in 0 W/m2
20:12 69.6 °F 64.5 °F 29.75 in South 1.0 mph 3.0 mph 84% 0.00 in 0 W/m2
20:18 70.4 °F 65.3 °F 29.75 in SSW 2.0 mph 3.0 mph 84% 0.00 in 0 W/m2
20:26 69.8 °F 64.7 °F 29.76 in SSW 1.0 mph 2.0 mph 84% 0.00 in 0 W/m2
20:32 69.4 °F 64.7 °F 29.75 in Calm     85% 0.00 in 0 W/m2
20:38 69.3 °F 64.9 °F 29.76 in Calm   1.0 mph 86% 0.00 in 0 W/m2
20:44 69.1 °F 65.1 °F 29.76 in Calm     87% 0.00 in 0 W/m2
20:50 69.2 °F 65.5 °F 29.76 in Calm     88% 0.00 in 0 W/m2
20:56 69.2 °F 65.5 °F 29.76 in Calm   1.0 mph 88% 0.00 in 0 W/m2
21:02 69.0 °F 65.3 °F 29.76 in Calm     88% 0.00 in 0 W/m2
21:08 68.5 °F 64.8 °F 29.76 in Calm     88% 0.00 in 0 W/m2
21:14 68.3 °F 64.6 °F 29.76 in Calm     88% 0.00 in 0 W/m2
21:20 68.0 °F 64.6 °F 29.76 in Calm     89% 0.00 in 0 W/m2
21:26 67.7 °F 64.3 °F 29.76 in Calm     89% 0.00 in 0 W/m2
21:32 67.4 °F 64.0 °F 29.76 in Calm     89% 0.00 in 0 W/m2
21:38 67.1 °F 63.7 °F 29.76 in Calm     89% 0.00 in 0 W/m2
21:46 66.7 °F 63.7 °F 29.75 in Calm     90% 0.00 in 0 W/m2
21:52 66.9 °F 64.2 °F 29.75 in Calm     91% 0.00 in 0 W/m2
21:58 66.9 °F 64.2 °F 29.75 in Calm     91% 0.00 in 0 W/m2
22:04 66.8 °F 64.1 °F 29.75 in Calm     91% 0.00 in 0 W/m2
22:10 66.6 °F 63.9 °F 29.75 in Calm     91% 0.00 in 0 W/m2
22:16 66.7 °F 64.0 °F 29.75 in Calm     91% 0.00 in 0 W/m2
22:22 66.8 °F 64.4 °F 29.75 in Calm     92% 0.00 in 0 W/m2
22:28 66.7 °F 64.3 °F 29.75 in Calm     92% 0.00 in 0 W/m2
22:34 66.8 °F 64.4 °F 29.75 in Calm     92% 0.00 in 0 W/m2
22:40 66.6 °F 64.2 °F 29.75 in Calm     92% 0.00 in 0 W/m2
22:46 66.3 °F 63.9 °F 29.76 in Calm     92% 0.00 in 0 W/m2
22:52 66.1 °F 63.7 °F 29.76 in Calm     92% 0.00 in 0 W/m2
22:58 66.1 °F 63.7 °F 29.76 in Calm     92% 0.00 in 0 W/m2
23:04 65.9 °F 63.5 °F 29.76 in Calm     92% 0.00 in 0 W/m2
23:10 65.7 °F 63.3 °F 29.76 in Calm     92% 0.00 in 0 W/m2
23:24 65.7 °F 63.3 °F 29.75 in Calm     92% 0.00 in 0 W/m2
23:30 65.7 °F 63.3 °F 29.75 in Calm     92% 0.00 in 0 W/m2
23:36 65.8 °F 63.7 °F 29.76 in Calm     93% 0.00 in 0 W/m2
23:42 66.0 °F 63.9 °F 29.76 in Calm     93% 0.00 in 0 W/m2
23:48 66.0 °F 63.9 °F 29.76 in Calm     93% 0.00 in 0 W/m2
23:52 66.0 °F 63.9 °F 29.76 in Calm     93% 0.00 in 0 W/m2
23:58 66.0 °F 63.9 °F 29.76 in Calm     93% 0.00 in 0 W/m2
Country Meadow, Clay, NY, USA
Compliments of Weather Underground - 2 mb